METAR Data
IDs: Format: Raw Decoded Include TAF

Data at: 0933 UTC 07 Dec 2021

KCRG 070853Z AUTO 22004KT 10SM CLR 18/17 A3001 RMK AO2 SLP163 T01830167 56009
KCRG 070753Z AUTO 22003KT 10SM FEW006 19/16 A3003 RMK AO2 SLP167 T01890161
KCRG 070653Z AUTO 24004KT 10SM CLR 18/16 A3003 RMK AO2 SLP168 T01830156
KCRG 070553Z AUTO 21004KT 10SM CLR 18/16 A3004 RMK AO2 SLP172 T01830156 10228 20183 58014
KCRG 070453Z AUTO 27003KT 10SM CLR 20/16 A3006 RMK AO2 SLP179 T02000161 402720100 TSNO
KCRG 070353Z 24006KT 10SM CLR 21/16 A3008 RMK AO2 SLP184 T02110161
KCRG 070253Z 28004KT 10SM CLR 21/16 A3008 RMK AO2 SLP186 T02110156 53009
KCRG 070153Z 28004KT 10SM CLR 22/16 A3008 RMK AO2 SLP184 T02170156
KCRG 070053Z 24004KT 10SM CLR 22/16 A3005 RMK AO2 SLP176 T02220161
KCRG 062353Z 00000KT 10SM CLR 22/16 A3005 RMK AO2 SLP177 T02220156 10272 20217 51009
KCRG 062253Z 24004KT 10SM CLR 24/15 A3005 RMK AO2 SLP175 T02440150
KCRG 062153Z 25007KT 10SM SCT048 26/15 A3004 RMK AO2 SLP173 T02560150
KCRG 062053Z 25009KT 10SM CLR 27/16 A3003 RMK AO2 SLP167 T02720156 56012
KCRG 061953Z 29010KT 10SM FEW044 27/16 A3003 RMK AO2 SLP168 T02670156
KCRG 061853Z 24012G19KT 10SM SCT041 27/16 A3004 RMK AO2 SLP172 T02670156 $
KCRG 061753Z 22012KT 10SM SCT033 25/17 A3006 RMK AO2 SLP179 T02500172 10261 20106 58027
KCRG 061653Z 24009KT 200V270 10SM CLR 24/17 A3008 RMK AO2 SLP187 T02390172
KCRG 061553Z 21009KT 10SM CLR 23/17 A3012 RMK AO2 SLP200 T02280172
KCRG 061453Z 00000KT 10SM CLR 20/18 A3014 RMK AO2 SLP207 T02000178 51006
KCRG 061355Z 00000KT 4SM BR CLR 16/16 A3013 RMK AO2 T01610161
KCRG 061353Z 21003KT 4SM BR CLR 16/16 A3013 RMK AO2 SLP203 T01610156
KCRG 061337Z 00000KT 3SM BR CLR 14/14 A3013 RMK AO2 T01390139
KCRG 061313Z 00000KT 2SM BR CLR 12/12 A3013 RMK AO2 T01220122
KCRG 061308Z 00000KT 1SM BR VV001 12/12 A3013 RMK AO2 T01220122
KCRG 061302Z 00000KT 1/2SM FG VV001 12/12 A3014 RMK AO2 T01170117
KCRG 061253Z 00000KT M1/4SM FG 12/11 A3014 RMK AO2 SLP204 T01170111
KCRG 061236Z 00000KT M1/4SM FG 11/11 A3013 RMK AO2 T01060106
KCRG 061153Z AUTO 00000KT 1/4SM FG VV002 11/10 A3012 RMK AO2 SLP200 T01060100 10122 20100 53007 $
KCRG 061146Z AUTO 00000KT 1/2SM FG VV002 11/10 A3012 RMK AO2 T01060100 $
KCRG 061143Z AUTO 00000KT 1 1/2SM BR OVC001 11/10 A3012 RMK AO2 T01060100 $
KCRG 061126Z AUTO 00000KT 3SM BR OVC001 11/10 A3012 RMK AO2 T01060100 $
KCRG 061120Z AUTO 00000KT 1SM BR OVC001 11/10 A3012 RMK AO2 T01060100 $
KCRG 061110Z AUTO 00000KT 1/2SM FG VV002 11/10 A3012 RMK AO2 T01060100 $
KCRG 061053Z AUTO 00000KT 1/4SM FG VV002 11/09 A3011 RMK AO2 SLP196 T01060094 $
KCRG 061024Z AUTO 00000KT 1/4SM FG VV002 10/09 A3010 RMK AO2 T01000094 $
KCRG 061016Z AUTO 00000KT 1/2SM FG VV002 10/09 A3010 RMK AO2 T01000094 $
KCRG 061013Z AUTO 00000KT 1 1/2SM BR OVC002 10/09 A3010 RMK AO2 T01000094 $
KCRG 060953Z AUTO 00000KT 4SM BR OVC002 11/10 A3010 RMK AO2 SLP193 T01110100 $
KCRG 060949Z AUTO 00000KT 5SM BR OVC002 11/10 A3010 RMK AO2 $
KCRG 060936Z AUTO 00000KT 2SM BR OVC002 11/10 A3011 RMK AO2 T01060100 $
KCRG 060921Z AUTO 00000KT 5SM BR BKN002 11/10 A3011 RMK AO2 T01060100 $
KCRG 060911Z AUTO 00000KT 3SM BR SCT002 11/11 A3012 RMK AO2 T01110106 $
KCRG 060905Z AUTO 00000KT 1 1/2SM BR SCT002 11/11 A3012 RMK AO2 VIS 1/2V4 T01110106 $
KCRG 060903Z AUTO 00000KT 3/4SM BR VV002 11/11 A3012 RMK AO2 VIS 1/4V2 1/2 T01110106 $
KCRG 060853Z AUTO 00000KT 1/4SM FG VV002 11/11 A3012 RMK AO2 SLP198 T01110106 56002 $
KCRG 060843Z AUTO 00000KT 1/2SM FG VV002 11/11 A3012 RMK AO2 T01110106 $
KCRG 060810Z AUTO 00000KT 1/4SM FG VV002 11/11 A3012 RMK AO2 T01110106 $
KCRG 060803Z AUTO 00000KT 1/2SM FG VV001 11/11 A3012 RMK AO2 T01110106 $
KCRG 060753Z AUTO 00000KT 1/4SM FG VV001 12/11 A3012 RMK AO2 SLP197 T01170106 $
KCRG 060701Z AUTO 00000KT 1/4SM FG VV001 12/11 A3012 RMK AO2 T01170111 $
KCRG 060653Z AUTO 00000KT 1/2SM FG VV001 12/11 A3012 RMK AO2 SLP200 T01170111 $
KCRG 060640Z AUTO 00000KT 1/2SM FG VV001 12/11 A3012 RMK AO2 T01170111 $
KCRG 060615Z AUTO 00000KT 1/4SM FG VV001 12/11 A3013 RMK AO2 T01170111 $
KCRG 060607Z AUTO 00000KT 1/2SM FG VV002 12/11 A3013 RMK AO2 T01170111 $
KCRG 060604Z AUTO 00000KT 1 1/4SM BR BKN002 12/11 A3013 RMK AO2 T01170111 $
KCRG 060600Z AUTO 00000KT 3SM BR BKN002 12/11 A3013 RMK AO2 T01170111 $
KCRG 060557Z AUTO 00000KT 1SM BR VV002 12/11 A3013 RMK AO2 T01170111 $
KCRG 060553Z AUTO 00000KT 1/2SM FG VV002 12/11 A3013 RMK AO2 SLP204 T01170111 10167 20111 58007 $
KCRG 060546Z AUTO 00000KT 1/2SM FG VV002 11/11 A3013 RMK AO2 T01110106 $
KCRG 060532Z AUTO 00000KT 1 3/4SM BR BKN002 12/12 A3014 RMK AO2 T01220117 $
KCRG 060525Z AUTO 00000KT 3/4SM BR 12/12 A3014 RMK AO2 T01220117 $
KCRG 060500Z AUTO 00000KT 1/4SM FG 12/11 A3015 RMK AO2 T01170111 $
KCRG 060453Z AUTO 00000KT 1/2SM FG VV002 12/11 A3015 RMK AO2 SLP209 T01220111 402280083 $
KCRG 060443Z AUTO 00000KT 1SM BR VV002 12/11 A3015 RMK AO2 T01170111 $
KCRG 060435Z AUTO 00000KT 1/2SM FG VV002 13/12 A3016 RMK AO2 T01280122 $
KCRG 060426Z AUTO 00000KT 1SM BR VV002 12/12 A3016 RMK AO2 T01220117
KCRG 060413Z AUTO 00000KT 2SM BR BKN002 12/12 A3017 RMK AO2 VIS 1V4 T01220117
KCRG 060406Z AUTO 00000KT 1 1/4SM BR SCT002 13/12 A3017 RMK AO2 T01280122
KCRG 060403Z AUTO 00000KT 1/2SM FG VV002 13/12 A3017 RMK AO2 T01280122
KCRG 060355Z AUTO 00000KT 3/4SM BR VV002 13/12 A3017 RMK AO2 T01280122
KCRG 060353Z AUTO 00000KT 1 3/4SM BR SCT002 13/13 A3017 RMK AO2 VIS 1/2V5 SLP215 T01280128
KCRG 060316Z AUTO 00000KT 3SM BR FEW002 13/12 A3016 RMK AO2 T01280122
KCRG 060314Z AUTO 00000KT 1 1/4SM BR FEW002 13/12 A3016 RMK AO2 T01280122
KCRG 060310Z AUTO 34003KT 1/2SM FG VV002 13/12 A3016 RMK AO2 T01280122
KCRG 060303Z AUTO 34003KT 1SM BR VV002 13/12 A3016 RMK AO2 T01280122
KCRG 060253Z 00000KT 3SM BR FEW002 14/13 A3016 RMK AO2 SLP211 T01390128 53006
KCRG 060153Z 00000KT 3SM BR FEW002 14/13 A3015 RMK AO2 SLP209 T01390128
KCRG 060059Z 00000KT 3SM BR CLR 16/15 A3014 RMK AO2 T01560150
KCRG 060057Z 00000KT 1 1/2SM BR CLR 16/15 A3014 RMK AO2 T01610150
KCRG 060053Z 00000KT 3SM BR CLR 16/15 A3014 RMK AO2 SLP207 T01610150
KCRG 052353Z 00000KT 6SM BR CLR 17/15 A3014 RMK AO2 SLP205 T01670150 10228 20161 53007
KCRG 052253Z 10003KT 10SM CLR 17/15 A3013 RMK AO2 SLP203 T01720150
KCRG 052153Z 10007KT 10SM CLR 19/16 A3012 RMK AO2 SLP200 T01890156